sensor_id;sensor_type;location;lat;lon;timestamp;pressure;altitude;pressure_sealevel;temperature;humidity
14343;BME280;7255;53.596;9.960;2023-05-03T00:00:00;102476.03;;;5.71;nan
14343;BME280;7255;53.596;9.960;2023-05-03T00:02:27;102487.84;;;5.69;nan
14343;BME280;7255;53.596;9.960;2023-05-03T00:04:56;102487.84;;;5.69;nan
14343;BME280;7255;53.596;9.960;2023-05-03T00:07:23;102481.91;;;5.75;nan
14343;BME280;7255;53.596;9.960;2023-05-03T00:09:50;102484.75;;;5.73;nan
14343;BME280;7255;53.596;9.960;2023-05-03T00:12:18;102482.59;;;5.49;nan
14343;BME280;7255;53.596;9.960;2023-05-03T00:14:44;102479.81;;;5.51;nan
14343;BME280;7255;53.596;9.960;2023-05-03T00:17:11;102483.16;;;5.53;nan
14343;BME280;7255;53.596;9.960;2023-05-03T00:19:37;102486.00;;;5.51;nan
14343;BME280;7255;53.596;9.960;2023-05-03T00:22:04;102480.34;;;5.54;nan
14343;BME280;7255;53.596;9.960;2023-05-03T00:24:31;102483.47;;;5.50;nan
14343;BME280;7255;53.596;9.960;2023-05-03T00:26:57;102470.56;;;5.45;nan
14343;BME280;7255;53.596;9.960;2023-05-03T00:29:25;102480.13;;;5.48;nan
14343;BME280;7255;53.596;9.960;2023-05-03T00:31:51;102470.34;;;5.38;nan
14343;BME280;7255;53.596;9.960;2023-05-03T00:34:18;102493.03;;;5.43;nan
14343;BME280;7255;53.596;9.960;2023-05-03T00:36:44;102484.69;;;5.28;nan
14343;BME280;7255;53.596;9.960;2023-05-03T00:39:11;102485.47;;;5.38;nan
14343;BME280;7255;53.596;9.960;2023-05-03T00:41:38;102489.38;;;5.44;nan
14343;BME280;7255;53.596;9.960;2023-05-03T00:44:04;102486.28;;;5.48;nan
14343;BME280;7255;53.596;9.960;2023-05-03T00:46:32;102481.78;;;5.49;nan
14343;BME280;7255;53.596;9.960;2023-05-03T00:48:59;102480.69;;;5.42;nan
14343;BME280;7255;53.596;9.960;2023-05-03T00:51:26;102487.41;;;5.46;nan
14343;BME280;7255;53.596;9.960;2023-05-03T00:53:52;102485.19;;;5.41;nan
14343;BME280;7255;53.596;9.960;2023-05-03T00:56:19;102475.97;;;5.35;nan
14343;BME280;7255;53.596;9.960;2023-05-03T00:58:47;102473.19;;;5.27;nan
14343;BME280;7255;53.596;9.960;2023-05-03T01:01:13;102476.78;;;5.36;nan
14343;BME280;7255;53.596;9.960;2023-05-03T01:03:41;102478.47;;;5.37;nan
14343;BME280;7255;53.596;9.960;2023-05-03T01:06:13;102481.28;;;5.35;nan
14343;BME280;7255;53.596;9.960;2023-05-03T01:08:46;102475.97;;;5.35;nan
14343;BME280;7255;53.596;9.960;2023-05-03T01:11:21;102461.41;;;5.30;nan
14343;BME280;7255;53.596;9.960;2023-05-03T01:13:54;102477.69;;;5.27;nan
14343;BME280;7255;53.596;9.960;2023-05-03T01:16:26;102484.72;;;5.18;nan
14343;BME280;7255;53.596;9.960;2023-05-03T01:18:56;102492.03;;;5.16;nan
14343;BME280;7255;53.596;9.960;2023-05-03T01:21:27;102488.34;;;5.27;nan
14343;BME280;7255;53.596;9.960;2023-05-03T01:23:58;102492.28;;;5.23;nan
14343;BME280;7255;53.596;9.960;2023-05-03T01:26:27;102496.53;;;5.15;nan
14343;BME280;7255;53.596;9.960;2023-05-03T01:28:54;102495.97;;;5.12;nan
14343;BME280;7255;53.596;9.960;2023-05-03T01:31:22;102499.31;;;5.14;nan
14343;BME280;7255;53.596;9.960;2023-05-03T01:34:04;102500.72;;;5.18;nan
14343;BME280;7255;53.596;9.960;2023-05-03T01:36:34;102489.97;;;5.37;nan
14343;BME280;7255;53.596;9.960;2023-05-03T01:39:05;102494.72;;;5.44;nan
14343;BME280;7255;53.596;9.960;2023-05-03T01:41:35;102500.03;;;5.53;nan
14343;BME280;7255;53.596;9.960;2023-05-03T01:44:05;102506.97;;;5.64;nan
14343;BME280;7255;53.596;9.960;2023-05-03T01:46:33;102511.72;;;5.70;nan
14343;BME280;7255;53.596;9.960;2023-05-03T01:49:00;102510.81;;;5.79;nan
14343;BME280;7255;53.596;9.960;2023-05-03T01:51:26;102524.22;;;5.88;nan
14343;BME280;7255;53.596;9.960;2023-05-03T01:53:52;102512.97;;;5.94;nan
14343;BME280;7255;53.596;9.960;2023-05-03T01:56:19;102518.28;;;6.04;nan
14343;BME280;7255;53.596;9.960;2023-05-03T01:58:47;102519.88;;;6.14;nan
14343;BME280;7255;53.596;9.960;2023-05-03T02:01:13;102522.34;;;6.26;nan
14343;BME280;7255;53.596;9.960;2023-05-03T02:03:39;102530.06;;;6.47;nan
14343;BME280;7255;53.596;9.960;2023-05-03T02:06:06;102526.75;;;6.71;nan
14343;BME280;7255;53.596;9.960;2023-05-03T02:08:32;102536.50;;;6.80;nan
14343;BME280;7255;53.596;9.960;2023-05-03T02:10:58;102535.44;;;6.73;nan
14343;BME280;7255;53.596;9.960;2023-05-03T02:13:25;102529.91;;;6.92;nan
14343;BME280;7255;53.596;9.960;2023-05-03T02:15:52;102532.72;;;6.91;nan
14343;BME280;7255;53.596;9.960;2023-05-03T02:18:19;102531.37;;;6.87;nan
14343;BME280;7255;53.596;9.960;2023-05-03T02:20:46;102535.72;;;6.70;nan
14343;BME280;7255;53.596;9.960;2023-05-03T02:23:13;102534.91;;;6.69;nan
14343;BME280;7255;53.596;9.960;2023-05-03T02:25:40;102552.47;;;6.54;nan
14343;BME280;7255;53.596;9.960;2023-05-03T02:28:06;102555.66;;;6.75;nan
14343;BME280;7255;53.596;9.960;2023-05-03T02:30:33;102549.34;;;6.59;nan
14343;BME280;7255;53.596;9.960;2023-05-03T02:33:01;102547.81;;;6.38;nan
14343;BME280;7255;53.596;9.960;2023-05-03T02:35:27;102559.41;;;6.65;nan
14343;BME280;7255;53.596;9.960;2023-05-03T02:37:53;102553.66;;;6.78;nan
14343;BME280;7255;53.596;9.960;2023-05-03T02:40:21;102554.81;;;6.75;nan
14343;BME280;7255;53.596;9.960;2023-05-03T02:42:47;102563.94;;;6.90;nan
14343;BME280;7255;53.596;9.960;2023-05-03T02:45:13;102561.75;;;6.86;nan
14343;BME280;7255;53.596;9.960;2023-05-03T02:47:40;102563.88;;;7.00;nan
14343;BME280;7255;53.596;9.960;2023-05-03T02:50:08;102560.94;;;7.11;nan
14343;BME280;7255;53.596;9.960;2023-05-03T02:52:34;102556.75;;;7.09;nan
14343;BME280;7255;53.596;9.960;2023-05-03T02:55:00;102567.84;;;7.22;nan
14343;BME280;7255;53.596;9.960;2023-05-03T02:57:27;102561.38;;;7.07;nan
14343;BME280;7255;53.596;9.960;2023-05-03T02:59:53;102551.81;;;6.96;nan
14343;BME280;7255;53.596;9.960;2023-05-03T03:02:19;102558.09;;;7.13;nan
14343;BME280;7255;53.596;9.960;2023-05-03T03:04:46;102558.31;;;7.20;nan
14343;BME280;7255;53.596;9.960;2023-05-03T03:07:13;102571.50;;;7.21;nan
14343;BME280;7255;53.596;9.960;2023-05-03T03:09:40;102565.56;;;7.27;nan
14343;BME280;7255;53.596;9.960;2023-05-03T03:12:06;102557.56;;;7.36;nan
14343;BME280;7255;53.596;9.960;2023-05-03T03:14:33;102556.53;;;7.28;nan
14343;BME280;7255;53.596;9.960;2023-05-03T03:17:00;102563.75;;;7.36;nan
14343;BME280;7255;53.596;9.960;2023-05-03T03:19:26;102552.22;;;7.36;nan
14343;BME280;7255;53.596;9.960;2023-05-03T03:21:53;102553.25;;;7.43;nan
14343;BME280;7255;53.596;9.960;2023-05-03T03:24:20;102562.28;;;7.42;nan
14343;BME280;7255;53.596;9.960;2023-05-03T03:26:47;102558.91;;;7.40;nan
14343;BME280;7255;53.596;9.960;2023-05-03T03:29:13;102562.09;;;7.35;nan
14343;BME280;7255;53.596;9.960;2023-05-03T03:31:40;102560.22;;;7.27;nan
14343;BME280;7255;53.596;9.960;2023-05-03T03:34:06;102568.69;;;7.23;nan
14343;BME280;7255;53.596;9.960;2023-05-03T03:36:33;102569.00;;;7.46;nan
14343;BME280;7255;53.596;9.960;2023-05-03T03:39:01;102563.97;;;7.43;nan
14343;BME280;7255;53.596;9.960;2023-05-03T03:41:30;102557.34;;;7.29;nan
14343;BME280;7255;53.596;9.960;2023-05-03T03:43:57;102564.59;;;7.37;nan
14343;BME280;7255;53.596;9.960;2023-05-03T03:46:23;102575.56;;;7.60;nan
14343;BME280;7255;53.596;9.960;2023-05-03T03:48:49;102566.44;;;7.70;nan
14343;BME280;7255;53.596;9.960;2023-05-03T03:51:16;102571.25;;;7.67;nan
14343;BME280;7255;53.596;9.960;2023-05-03T03:53:42;102573.25;;;7.65;nan
14343;BME280;7255;53.596;9.960;2023-05-03T03:56:08;102568.13;;;7.71;nan
14343;BME280;7255;53.596;9.960;2023-05-03T03:58:36;102562.63;;;7.81;nan
14343;BME280;7255;53.596;9.960;2023-05-03T04:01:03;102566.34;;;7.54;nan
14343;BME280;7255;53.596;9.960;2023-05-03T04:03:29;102559.66;;;7.50;nan
14343;BME280;7255;53.596;9.960;2023-05-03T04:05:56;102543.59;;;7.50;nan
14343;BME280;7255;53.596;9.960;2023-05-03T04:08:22;102557.66;;;7.52;nan
14343;BME280;7255;53.596;9.960;2023-05-03T04:10:49;102562.88;;;7.62;nan
14343;BME280;7255;53.596;9.960;2023-05-03T04:13:15;102562.56;;;7.65;nan
14343;BME280;7255;53.596;9.960;2023-05-03T04:15:43;102572.16;;;7.84;nan
14343;BME280;7255;53.596;9.960;2023-05-03T04:18:09;102554.75;;;7.80;nan
14343;BME280;7255;53.596;9.960;2023-05-03T04:20:36;102564.38;;;7.99;nan
14343;BME280;7255;53.596;9.960;2023-05-03T04:23:02;102564.88;;;8.02;nan
14343;BME280;7255;53.596;9.960;2023-05-03T04:25:29;102572.09;;;8.10;nan
14343;BME280;7255;53.596;9.960;2023-05-03T04:27:56;102572.28;;;8.17;nan
14343;BME280;7255;53.596;9.960;2023-05-03T04:30:22;102574.00;;;8.34;nan
14343;BME280;7255;53.596;9.960;2023-05-03T04:32:50;102567.69;;;8.43;nan
14343;BME280;7255;53.596;9.960;2023-05-03T04:35:19;102578.72;;;8.57;nan
14343;BME280;7255;53.596;9.960;2023-05-03T04:37:46;102566.63;;;8.36;nan
14343;BME280;7255;53.596;9.960;2023-05-03T04:40:12;102584.50;;;8.27;nan
14343;BME280;7255;53.596;9.960;2023-05-03T04:42:39;102583.00;;;8.33;nan
14343;BME280;7255;53.596;9.960;2023-05-03T04:45:06;102597.50;;;8.48;nan
14343;BME280;7255;53.596;9.960;2023-05-03T04:47:33;102604.19;;;8.53;nan
14343;BME280;7255;53.596;9.960;2023-05-03T04:50:01;102597.81;;;8.45;nan
14343;BME280;7255;53.596;9.960;2023-05-03T04:52:27;102605.81;;;8.37;nan
14343;BME280;7255;53.596;9.960;2023-05-03T04:54:54;102601.28;;;8.38;nan
14343;BME280;7255;53.596;9.960;2023-05-03T04:57:20;102612.31;;;8.35;nan
14343;BME280;7255;53.596;9.960;2023-05-03T04:59:47;102612.22;;;8.44;nan
14343;BME280;7255;53.596;9.960;2023-05-03T05:02:14;102610.66;;;8.34;nan
14343;BME280;7255;53.596;9.960;2023-05-03T05:04:40;102618.44;;;8.61;nan
14343;BME280;7255;53.596;9.960;2023-05-03T05:07:08;102619.28;;;8.62;nan
14343;BME280;7255;53.596;9.960;2023-05-03T05:09:34;102628.31;;;8.77;nan
14343;BME280;7255;53.596;9.960;2023-05-03T05:12:00;102624.16;;;8.91;nan
14343;BME280;7255;53.596;9.960;2023-05-03T05:14:29;102633.37;;;8.97;nan
14343;BME280;7255;53.596;9.960;2023-05-03T05:16:55;102630.69;;;8.72;nan
14343;BME280;7255;53.596;9.960;2023-05-03T05:19:21;102626.69;;;8.93;nan
14343;BME280;7255;53.596;9.960;2023-05-03T05:21:48;102637.41;;;9.09;nan
14343;BME280;7255;53.596;9.960;2023-05-03T05:24:15;102638.22;;;9.26;nan
14343;BME280;7255;53.596;9.960;2023-05-03T05:26:42;102644.06;;;9.46;nan
14343;BME280;7255;53.596;9.960;2023-05-03T05:29:09;102629.31;;;9.34;nan
14343;BME280;7255;53.596;9.960;2023-05-03T05:31:35;102650.94;;;9.40;nan
14343;BME280;7255;53.596;9.960;2023-05-03T05:34:02;102640.53;;;9.37;nan
14343;BME280;7255;53.596;9.960;2023-05-03T05:36:29;102650.25;;;9.47;nan
14343;BME280;7255;53.596;9.960;2023-05-03T05:38:55;102640.22;;;9.24;nan
14343;BME280;7255;53.596;9.960;2023-05-03T05:41:23;102660.16;;;9.46;nan
14343;BME280;7255;53.596;9.960;2023-05-03T05:43:50;102657.63;;;9.61;nan
14343;BME280;7255;53.596;9.960;2023-05-03T05:46:17;102665.69;;;9.53;nan
14343;BME280;7255;53.596;9.960;2023-05-03T05:48:45;102669.84;;;9.72;nan
14343;BME280;7255;53.596;9.960;2023-05-03T05:51:11;102668.06;;;10.03;nan
14343;BME280;7255;53.596;9.960;2023-05-03T05:53:38;102672.53;;;9.80;nan
14343;BME280;7255;53.596;9.960;2023-05-03T05:56:04;102673.47;;;9.87;nan
14343;BME280;7255;53.596;9.960;2023-05-03T05:58:34;102670.87;;;10.18;nan
14343;BME280;7255;53.596;9.960;2023-05-03T06:01:01;102677.34;;;9.93;nan
14343;BME280;7255;53.596;9.960;2023-05-03T06:03:28;102677.91;;;10.19;nan
14343;BME280;7255;53.596;9.960;2023-05-03T06:05:55;102668.53;;;10.07;nan
14343;BME280;7255;53.596;9.960;2023-05-03T06:08:21;102679.38;;;10.30;nan
14343;BME280;7255;53.596;9.960;2023-05-03T06:10:48;102681.19;;;10.38;nan
14343;BME280;7255;53.596;9.960;2023-05-03T06:13:16;102693.47;;;9.93;nan
14343;BME280;7255;53.596;9.960;2023-05-03T06:15:44;102690.56;;;9.94;nan
14343;BME280;7255;53.596;9.960;2023-05-03T06:18:11;102687.37;;;9.99;nan
14343;BME280;7255;53.596;9.960;2023-05-03T06:20:37;102681.06;;;9.75;nan
14343;BME280;7255;53.596;9.960;2023-05-03T06:23:03;102685.66;;;9.58;nan
14343;BME280;7255;53.596;9.960;2023-05-03T06:25:29;102691.78;;;9.92;nan
14343;BME280;7255;53.596;9.960;2023-05-03T06:27:56;102684.72;;;9.91;nan
14343;BME280;7255;53.596;9.960;2023-05-03T06:30:22;102690.09;;;9.91;nan
14343;BME280;7255;53.596;9.960;2023-05-03T06:32:51;102692.38;;;10.18;nan
14343;BME280;7255;53.596;9.960;2023-05-03T06:35:17;102697.91;;;10.09;nan
14343;BME280;7255;53.596;9.960;2023-05-03T06:37:45;102706.56;;;10.27;nan
14343;BME280;7255;53.596;9.960;2023-05-03T06:40:12;102699.12;;;10.46;nan
14343;BME280;7255;53.596;9.960;2023-05-03T06:42:39;102701.09;;;10.20;nan
14343;BME280;7255;53.596;9.960;2023-05-03T06:45:06;102696.06;;;10.57;nan
14343;BME280;7255;53.596;9.960;2023-05-03T06:47:33;102691.94;;;10.38;nan
14343;BME280;7255;53.596;9.960;2023-05-03T06:50:02;102696.06;;;10.57;nan
14343;BME280;7255;53.596;9.960;2023-05-03T06:52:29;102688.59;;;10.36;nan
14343;BME280;7255;53.596;9.960;2023-05-03T06:54:55;102687.28;;;10.32;nan
14343;BME280;7255;53.596;9.960;2023-05-03T06:57:22;102683.00;;;10.46;nan
14343;BME280;7255;53.596;9.960;2023-05-03T06:59:49;102699.41;;;10.59;nan
14343;BME280;7255;53.596;9.960;2023-05-03T07:02:16;102696.41;;;10.54;nan
14343;BME280;7255;53.596;9.960;2023-05-03T07:04:42;102697.81;;;10.42;nan
14343;BME280;7255;53.596;9.960;2023-05-03T07:07:10;102699.12;;;10.46;nan
14343;BME280;7255;53.596;9.960;2023-05-03T07:09:36;102691.47;;;10.34;nan
14343;BME280;7255;53.596;9.960;2023-05-03T07:12:03;102698.69;;;10.65;nan
14343;BME280;7255;53.596;9.960;2023-05-03T07:14:30;102699.50;;;10.43;nan
14343;BME280;7255;53.596;9.960;2023-05-03T07:16:56;102695.41;;;10.07;nan
14343;BME280;7255;53.596;9.960;2023-05-03T07:19:23;102697.09;;;10.08;nan
14343;BME280;7255;53.596;9.960;2023-05-03T07:21:49;102702.84;;;10.45;nan
14343;BME280;7255;53.596;9.960;2023-05-03T07:24:17;102708.13;;;10.61;nan
14343;BME280;7255;53.596;9.960;2023-05-03T07:26:44;102713.53;;;10.61;nan
14343;BME280;7255;53.596;9.960;2023-05-03T07:29:11;102722.38;;;10.70;nan
14343;BME280;7255;53.596;9.960;2023-05-03T07:31:37;102716.75;;;10.79;nan
14343;BME280;7255;53.596;9.960;2023-05-03T07:34:03;102715.31;;;10.69;nan
14343;BME280;7255;53.596;9.960;2023-05-03T07:36:30;102706.03;;;11.03;nan
14343;BME280;7255;53.596;9.960;2023-05-03T07:38:56;102709.81;;;11.31;nan
14343;BME280;7255;53.596;9.960;2023-05-03T07:41:24;102716.41;;;11.29;nan
14343;BME280;7255;53.596;9.960;2023-05-03T07:43:50;102716.47;;;11.59;nan
14343;BME280;7255;53.596;9.960;2023-05-03T07:46:17;102715.09;;;11.78;nan
14343;BME280;7255;53.596;9.960;2023-05-03T07:48:43;102723.91;;;12.09;nan
14343;BME280;7255;53.596;9.960;2023-05-03T07:51:10;102720.47;;;12.01;nan
14343;BME280;7255;53.596;9.960;2023-05-03T07:53:36;102719.16;;;11.97;nan
14343;BME280;7255;53.596;9.960;2023-05-03T07:56:04;102723.28;;;11.69;nan
14343;BME280;7255;53.596;9.960;2023-05-03T07:58:32;102712.19;;;11.49;nan
14343;BME280;7255;53.596;9.960;2023-05-03T08:00:58;102721.72;;;11.75;nan
14343;BME280;7255;53.596;9.960;2023-05-03T08:03:25;102723.72;;;11.20;nan
14343;BME280;7255;53.596;9.960;2023-05-03T08:05:51;102724.22;;;11.77;nan
14343;BME280;7255;53.596;9.960;2023-05-03T08:08:17;102717.47;;;11.96;nan
14343;BME280;7255;53.596;9.960;2023-05-03T08:10:44;102728.03;;;11.82;nan
14343;BME280;7255;53.596;9.960;2023-05-03T08:13:10;102731.06;;;11.64;nan
14343;BME280;7255;53.596;9.960;2023-05-03T08:15:38;102723.16;;;11.63;nan
14343;BME280;7255;53.596;9.960;2023-05-03T08:18:05;102735.81;;;11.77;nan
14343;BME280;7255;53.596;9.960;2023-05-03T08:20:31;102724.69;;;11.80;nan
14343;BME280;7255;53.596;9.960;2023-05-03T08:23:00;102724.44;;;12.20;nan
14343;BME280;7255;53.596;9.960;2023-05-03T08:25:27;102738.28;;;12.31;nan
14343;BME280;7255;53.596;9.960;2023-05-03T08:27:54;102722.41;;;12.22;nan
14343;BME280;7255;53.596;9.960;2023-05-03T08:30:20;102730.94;;;12.40;nan
14343;BME280;7255;53.596;9.960;2023-05-03T08:32:48;102725.63;;;12.47;nan
14343;BME280;7255;53.596;9.960;2023-05-03T08:35:15;102740.12;;;12.46;nan
14343;BME280;7255;53.596;9.960;2023-05-03T08:37:42;102735.69;;;12.23;nan
14343;BME280;7255;53.596;9.960;2023-05-03T08:40:10;102734.22;;;12.06;nan
14343;BME280;7255;53.596;9.960;2023-05-03T08:42:39;102730.66;;;11.90;nan
14343;BME280;7255;53.596;9.960;2023-05-03T08:45:09;102740.06;;;12.09;nan
14343;BME280;7255;53.596;9.960;2023-05-03T08:47:36;102728.03;;;11.82;nan
14343;BME280;7255;53.596;9.960;2023-05-03T08:50:07;102725.81;;;12.30;nan
14343;BME280;7255;53.596;9.960;2023-05-03T08:52:34;102729.41;;;12.89;nan
14343;BME280;7255;53.596;9.960;2023-05-03T08:55:00;102741.34;;;12.80;nan
14343;BME280;7255;53.596;9.960;2023-05-03T08:57:27;102738.91;;;12.85;nan
14343;BME280;7255;53.596;9.960;2023-05-03T08:59:54;102737.00;;;13.00;nan
14343;BME280;7255;53.596;9.960;2023-05-03T09:02:25;102740.25;;;13.32;nan
14343;BME280;7255;53.596;9.960;2023-05-03T09:04:51;102748.87;;;13.71;nan
14343;BME280;7255;53.596;9.960;2023-05-03T09:07:19;102750.22;;;13.32;nan
14343;BME280;7255;53.596;9.960;2023-05-03T09:09:45;102745.34;;;13.05;nan
14343;BME280;7255;53.596;9.960;2023-05-03T09:12:14;102753.72;;;13.10;nan
14343;BME280;7255;53.596;9.960;2023-05-03T09:14:57;102749.06;;;13.41;nan
14343;BME280;7255;53.596;9.960;2023-05-03T09:17:24;102765.69;;;13.94;nan
14343;BME280;7255;53.596;9.960;2023-05-03T09:19:51;102760.03;;;13.61;nan
14343;BME280;7255;53.596;9.960;2023-05-03T09:22:21;102765.19;;;13.84;nan
14343;BME280;7255;53.596;9.960;2023-05-03T09:24:52;102758.25;;;13.46;nan
14343;BME280;7255;53.596;9.960;2023-05-03T09:27:19;102760.31;;;13.73;nan
14343;BME280;7255;53.596;9.960;2023-05-03T09:29:47;102759.19;;;14.23;nan
14343;BME280;7255;53.596;9.960;2023-05-03T09:32:13;102770.19;;;14.57;nan
14343;BME280;7255;53.596;9.960;2023-05-03T09:34:39;102763.00;;;14.36;nan
14343;BME280;7255;53.596;9.960;2023-05-03T09:37:06;102766.88;;;13.85;nan
14343;BME280;7255;53.596;9.960;2023-05-03T09:39:33;102765.78;;;13.79;nan
14343;BME280;7255;53.596;9.960;2023-05-03T09:42:09;102760.31;;;13.44;nan
14343;BME280;7255;53.596;9.960;2023-05-03T09:44:40;102760.03;;;14.24;nan
14343;BME280;7255;53.596;9.960;2023-05-03T09:47:07;102765.47;;;14.66;nan
14343;BME280;7255;53.596;9.960;2023-05-03T09:49:33;102773.66;;;14.86;nan
14343;BME280;7255;53.596;9.960;2023-05-03T09:52:01;102776.44;;;14.57;nan
14343;BME280;7255;53.596;9.960;2023-05-03T09:54:29;102769.81;;;14.67;nan
14343;BME280;7255;53.596;9.960;2023-05-03T09:56:57;102759.88;;;14.87;nan
14343;BME280;7255;53.596;9.960;2023-05-03T09:59:24;102755.97;;;14.48;nan
14343;BME280;7255;53.596;9.960;2023-05-03T10:01:55;102748.63;;;14.29;nan
14343;BME280;7255;53.596;9.960;2023-05-03T10:04:24;102761.63;;;15.21;nan
14343;BME280;7255;53.596;9.960;2023-05-03T10:06:52;102763.31;;;15.49;nan
14343;BME280;7255;53.596;9.960;2023-05-03T10:09:27;102757.88;;;14.13;nan
14343;BME280;7255;53.596;9.960;2023-05-03T10:11:59;102753.34;;;14.20;nan
14343;BME280;7255;53.596;9.960;2023-05-03T10:14:26;102766.41;;;14.51;nan
14343;BME280;7255;53.596;9.960;2023-05-03T10:16:58;102749.59;;;14.21;nan
14343;BME280;7255;53.596;9.960;2023-05-03T10:19:29;102756.50;;;13.89;nan
14343;BME280;7255;53.596;9.960;2023-05-03T10:22:01;102746.13;;;12.99;nan
14343;BME280;7255;53.596;9.960;2023-05-03T10:24:28;102740.16;;;13.25;nan
14343;BME280;7255;53.596;9.960;2023-05-03T10:26:55;102738.25;;;13.41;nan
14343;BME280;7255;53.596;9.960;2023-05-03T10:29:45;102743.62;;;13.97;nan
14343;BME280;7255;53.596;9.960;2023-05-03T10:32:29;102741.63;;;14.06;nan
14343;BME280;7255;53.596;9.960;2023-05-03T10:34:56;102750.75;;;14.88;nan
14343;BME280;7255;53.596;9.960;2023-05-03T10:37:25;102741.63;;;15.02;nan
14343;BME280;7255;53.596;9.960;2023-05-03T10:39:52;102743.75;;;15.54;nan
14343;BME280;7255;53.596;9.960;2023-05-03T10:42:21;102736.62;;;15.33;nan
14343;BME280;7255;53.596;9.960;2023-05-03T10:44:53;102734.53;;;14.95;nan
14343;BME280;7255;53.596;9.960;2023-05-03T10:47:20;102732.25;;;14.50;nan
14343;BME280;7255;53.596;9.960;2023-05-03T10:50:26;102732.59;;;14.34;nan
14343;BME280;7255;53.596;9.960;2023-05-03T10:52:52;102726.91;;;13.80;nan
14343;BME280;7255;53.596;9.960;2023-05-03T10:55:20;102735.59;;;14.52;nan
14343;BME280;7255;53.596;9.960;2023-05-03T10:57:52;102729.47;;;14.72;nan
14343;BME280;7255;53.596;9.960;2023-05-03T11:00:23;102731.47;;;14.56;nan
14343;BME280;7255;53.596;9.960;2023-05-03T11:03:10;102725.88;;;14.16;nan
14343;BME280;7255;53.596;9.960;2023-05-03T11:05:38;102717.69;;;13.68;nan
14343;BME280;7255;53.596;9.960;2023-05-03T11:08:12;102719.75;;;13.66;nan
14343;BME280;7255;53.596;9.960;2023-05-03T11:10:39;102712.41;;;12.88;nan
14343;BME280;7255;53.596;9.960;2023-05-03T11:13:06;102713.31;;;12.96;nan
14343;BME280;7255;53.596;9.960;2023-05-03T11:15:34;102706.41;;;13.15;nan
14343;BME280;7255;53.596;9.960;2023-05-03T11:18:00;102713.50;;;13.65;nan
14343;BME280;7255;53.596;9.960;2023-05-03T11:20:27;102712.50;;;14.01;nan
14343;BME280;7255;53.596;9.960;2023-05-03T11:22:54;102717.78;;;13.81;nan
14343;BME280;7255;53.596;9.960;2023-05-03T11:25:21;102715.41;;;14.00;nan
14343;BME280;7255;53.596;9.960;2023-05-03T11:27:47;102728.06;;;14.41;nan
14343;BME280;7255;53.596;9.960;2023-05-03T11:30:14;102712.13;;;14.11;nan
14343;BME280;7255;53.596;9.960;2023-05-03T11:32:43;102723.44;;;14.28;nan
14343;BME280;7255;53.596;9.960;2023-05-03T11:35:11;102723.28;;;14.91;nan
14343;BME280;7255;53.596;9.960;2023-05-03T11:37:38;102727.06;;;15.44;nan
14343;BME280;7255;53.596;9.960;2023-05-03T11:40:06;102724.91;;;16.12;nan
14343;BME280;7255;53.596;9.960;2023-05-03T11:42:49;102736.06;;;16.88;nan
14343;BME280;7255;53.596;9.960;2023-05-03T11:45:16;102730.22;;;16.39;nan
14343;BME280;7255;53.596;9.960;2023-05-03T11:47:43;102721.22;;;15.60;nan
14343;BME280;7255;53.596;9.960;2023-05-03T11:50:10;102723.69;;;14.88;nan
14343;BME280;7255;53.596;9.960;2023-05-03T11:52:37;102722.47;;;14.01;nan
14343;BME280;7255;53.596;9.960;2023-05-03T11:55:06;102713.81;;;14.12;nan
14343;BME280;7255;53.596;9.960;2023-05-03T11:57:35;102714.69;;;14.26;nan
14343;BME280;7255;53.596;9.960;2023-05-03T12:00:12;102711.84;;;14.34;nan
14343;BME280;7255;53.596;9.960;2023-05-03T12:02:41;102701.97;;;13.78;nan
14343;BME280;7255;53.596;9.960;2023-05-03T12:05:09;102708.47;;;13.56;nan
14343;BME280;7255;53.596;9.960;2023-05-03T12:07:35;102691.59;;;12.82;nan
14343;BME280;7255;53.596;9.960;2023-05-03T12:10:12;102683.03;;;13.00;nan
14343;BME280;7255;53.596;9.960;2023-05-03T12:12:38;102694.09;;;13.83;nan
14343;BME280;7255;53.596;9.960;2023-05-03T12:15:06;102690.63;;;14.38;nan
14343;BME280;7255;53.596;9.960;2023-05-03T12:17:34;102686.56;;;14.62;nan
14343;BME280;7255;53.596;9.960;2023-05-03T12:20:16;102688.91;;;14.23;nan
14343;BME280;7255;53.596;9.960;2023-05-03T12:22:42;102691.56;;;14.58;nan
14343;BME280;7255;53.596;9.960;2023-05-03T12:25:08;102699.84;;;14.57;nan
14343;BME280;7255;53.596;9.960;2023-05-03T12:27:35;102688.66;;;14.67;nan
14343;BME280;7255;53.596;9.960;2023-05-03T12:30:01;102701.19;;;14.94;nan
14343;BME280;7255;53.596;9.960;2023-05-03T12:32:28;102691.50;;;14.52;nan
14343;BME280;7255;53.596;9.960;2023-05-03T12:34:54;102693.69;;;14.83;nan
14343;BME280;7255;53.596;9.960;2023-05-03T12:37:22;102694.97;;;15.34;nan
14343;BME280;7255;53.596;9.960;2023-05-03T12:39:48;102692.88;;;15.83;nan
14343;BME280;7255;53.596;9.960;2023-05-03T12:42:15;102689.41;;;16.21;nan
14343;BME280;7255;53.596;9.960;2023-05-03T12:44:41;102690.59;;;16.38;nan
14343;BME280;7255;53.596;9.960;2023-05-03T12:47:08;102682.03;;;15.49;nan
14343;BME280;7255;53.596;9.960;2023-05-03T12:49:34;102681.22;;;15.49;nan
14343;BME280;7255;53.596;9.960;2023-05-03T12:52:01;102677.06;;;15.13;nan
14343;BME280;7255;53.596;9.960;2023-05-03T12:54:28;102681.22;;;15.09;nan
14343;BME280;7255;53.596;9.960;2023-05-03T12:56:55;102668.72;;;14.88;nan
14343;BME280;7255;53.596;9.960;2023-05-03T12:59:24;102665.41;;;14.99;nan
14343;BME280;7255;53.596;9.960;2023-05-03T13:01:50;102675.34;;;15.58;nan
14343;BME280;7255;53.596;9.960;2023-05-03T13:04:16;102667.47;;;15.44;nan
14343;BME280;7255;53.596;9.960;2023-05-03T13:06:42;102664.16;;;15.15;nan
14343;BME280;7255;53.596;9.960;2023-05-03T13:09:10;102673.28;;;15.54;nan
14343;BME280;7255;53.596;9.960;2023-05-03T13:11:38;102677.22;;;15.85;nan
14343;BME280;7255;53.596;9.960;2023-05-03T13:14:04;102668.25;;;15.64;nan
14343;BME280;7255;53.596;9.960;2023-05-03T13:16:31;102670.75;;;15.72;nan
14343;BME280;7255;53.596;9.960;2023-05-03T13:18:59;102664.97;;;15.42;nan
14343;BME280;7255;53.596;9.960;2023-05-03T13:21:25;102666.22;;;15.33;nan
14343;BME280;7255;53.596;9.960;2023-05-03T13:23:53;102671.97;;;15.96;nan
14343;BME280;7255;53.596;9.960;2023-05-03T13:26:19;102662.69;;;16.24;nan
14343;BME280;7255;53.596;9.960;2023-05-03T13:28:47;102665.34;;;15.72;nan